sensor_id;sensor_type;location;lat;lon;timestamp;P1;durP1;ratioP1;P2;durP2;ratioP2
68089;SDS011;54880;50.986;6.990;2023-07-28T00:01:16;6.80;;;1.73;;
68089;SDS011;54880;50.986;6.990;2023-07-28T00:03:41;5.73;;;1.47;;
68089;SDS011;54880;50.986;6.990;2023-07-28T00:06:07;6.33;;;1.70;;
68089;SDS011;54880;50.986;6.990;2023-07-28T00:08:32;5.07;;;1.60;;
68089;SDS011;54880;50.986;6.990;2023-07-28T00:10:57;5.17;;;1.50;;
68089;SDS011;54880;50.986;6.990;2023-07-28T00:13:22;6.03;;;1.77;;
68089;SDS011;54880;50.986;6.990;2023-07-28T00:15:48;5.57;;;1.80;;
68089;SDS011;54880;50.986;6.990;2023-07-28T00:18:13;7.83;;;1.53;;
68089;SDS011;54880;50.986;6.990;2023-07-28T00:20:38;5.20;;;1.43;;
68089;SDS011;54880;50.986;6.990;2023-07-28T00:23:04;4.67;;;1.43;;
68089;SDS011;54880;50.986;6.990;2023-07-28T00:25:29;5.70;;;1.60;;
68089;SDS011;54880;50.986;6.990;2023-07-28T00:27:54;5.37;;;1.57;;
68089;SDS011;54880;50.986;6.990;2023-07-28T00:30:20;5.13;;;1.80;;
68089;SDS011;54880;50.986;6.990;2023-07-28T00:32:46;4.60;;;1.40;;
68089;SDS011;54880;50.986;6.990;2023-07-28T00:35:11;6.17;;;1.60;;
68089;SDS011;54880;50.986;6.990;2023-07-28T00:37:37;4.85;;;1.40;;
68089;SDS011;54880;50.986;6.990;2023-07-28T00:40:02;5.23;;;1.47;;
68089;SDS011;54880;50.986;6.990;2023-07-28T00:42:29;5.07;;;1.05;;
68089;SDS011;54880;50.986;6.990;2023-07-28T00:44:54;5.23;;;1.50;;
68089;SDS011;54880;50.986;6.990;2023-07-28T00:47:19;5.37;;;1.70;;
68089;SDS011;54880;50.986;6.990;2023-07-28T00:49:45;6.33;;;1.60;;
68089;SDS011;54880;50.986;6.990;2023-07-28T00:52:10;7.10;;;1.63;;
68089;SDS011;54880;50.986;6.990;2023-07-28T00:54:35;4.60;;;1.50;;
68089;SDS011;54880;50.986;6.990;2023-07-28T00:57:01;5.10;;;1.67;;
68089;SDS011;54880;50.986;6.990;2023-07-28T00:59:27;4.68;;;1.40;;
68089;SDS011;54880;50.986;6.990;2023-07-28T01:01:52;4.77;;;1.33;;
68089;SDS011;54880;50.986;6.990;2023-07-28T01:04:17;5.43;;;1.40;;
68089;SDS011;54880;50.986;6.990;2023-07-28T01:07:04;4.60;;;1.10;;
68089;SDS011;54880;50.986;6.990;2023-07-28T01:09:29;5.05;;;1.45;;
68089;SDS011;54880;50.986;6.990;2023-07-28T01:11:57;4.65;;;1.48;;
68089;SDS011;54880;50.986;6.990;2023-07-28T01:14:23;4.72;;;1.40;;
68089;SDS011;54880;50.986;6.990;2023-07-28T01:16:48;4.67;;;1.20;;
68089;SDS011;54880;50.986;6.990;2023-07-28T01:19:15;5.28;;;1.50;;
68089;SDS011;54880;50.986;6.990;2023-07-28T01:21:41;6.45;;;1.50;;
68089;SDS011;54880;50.986;6.990;2023-07-28T01:26:40;5.10;;;1.58;;
68089;SDS011;54880;50.986;6.990;2023-07-28T01:29:06;4.47;;;1.27;;
68089;SDS011;54880;50.986;6.990;2023-07-28T01:31:31;5.60;;;1.35;;
68089;SDS011;54880;50.986;6.990;2023-07-28T01:33:56;4.95;;;1.27;;
68089;SDS011;54880;50.986;6.990;2023-07-28T01:36:22;4.65;;;1.65;;
68089;SDS011;54880;50.986;6.990;2023-07-28T01:38:47;5.33;;;1.20;;
68089;SDS011;54880;50.986;6.990;2023-07-28T01:41:12;7.47;;;1.27;;
68089;SDS011;54880;50.986;6.990;2023-07-28T01:43:38;4.30;;;1.17;;
68089;SDS011;54880;50.986;6.990;2023-07-28T01:46:03;5.23;;;1.50;;
68089;SDS011;54880;50.986;6.990;2023-07-28T01:48:28;4.43;;;1.17;;
68089;SDS011;54880;50.986;6.990;2023-07-28T01:50:53;4.43;;;1.20;;
68089;SDS011;54880;50.986;6.990;2023-07-28T01:53:19;5.23;;;1.43;;
68089;SDS011;54880;50.986;6.990;2023-07-28T01:55:44;4.07;;;1.10;;
68089;SDS011;54880;50.986;6.990;2023-07-28T01:58:10;4.05;;;1.17;;
68089;SDS011;54880;50.986;6.990;2023-07-28T02:00:35;3.80;;;1.00;;
68089;SDS011;54880;50.986;6.990;2023-07-28T02:03:00;5.43;;;1.40;;
68089;SDS011;54880;50.986;6.990;2023-07-28T02:05:28;4.95;;;1.40;;
68089;SDS011;54880;50.986;6.990;2023-07-28T02:07:54;4.33;;;1.30;;
68089;SDS011;54880;50.986;6.990;2023-07-28T02:10:19;4.72;;;1.02;;
68089;SDS011;54880;50.986;6.990;2023-07-28T02:12:44;4.15;;;1.20;;
68089;SDS011;54880;50.986;6.990;2023-07-28T02:15:11;5.23;;;1.20;;
68089;SDS011;54880;50.986;6.990;2023-07-28T02:17:36;6.20;;;1.10;;
68089;SDS011;54880;50.986;6.990;2023-07-28T02:20:02;4.70;;;1.10;;
68089;SDS011;54880;50.986;6.990;2023-07-28T02:22:28;7.13;;;1.00;;
68089;SDS011;54880;50.986;6.990;2023-07-28T02:24:54;5.00;;;1.10;;
68089;SDS011;54880;50.986;6.990;2023-07-28T02:27:19;3.73;;;1.07;;
68089;SDS011;54880;50.986;6.990;2023-07-28T02:29:44;4.30;;;1.10;;
68089;SDS011;54880;50.986;6.990;2023-07-28T02:32:10;4.00;;;1.23;;
68089;SDS011;54880;50.986;6.990;2023-07-28T02:34:36;4.30;;;1.13;;
68089;SDS011;54880;50.986;6.990;2023-07-28T02:37:01;4.90;;;1.40;;
68089;SDS011;54880;50.986;6.990;2023-07-28T02:39:26;5.80;;;1.20;;
68089;SDS011;54880;50.986;6.990;2023-07-28T02:41:52;5.53;;;1.30;;
68089;SDS011;54880;50.986;6.990;2023-07-28T02:44:17;5.38;;;1.10;;
68089;SDS011;54880;50.986;6.990;2023-07-28T02:46:42;5.38;;;1.35;;
68089;SDS011;54880;50.986;6.990;2023-07-28T02:49:07;8.10;;;1.30;;
68089;SDS011;54880;50.986;6.990;2023-07-28T02:51:33;5.03;;;1.07;;
68089;SDS011;54880;50.986;6.990;2023-07-28T02:53:59;4.93;;;1.20;;
68089;SDS011;54880;50.986;6.990;2023-07-28T02:56:24;4.83;;;0.90;;
68089;SDS011;54880;50.986;6.990;2023-07-28T02:58:50;5.83;;;1.50;;
68089;SDS011;54880;50.986;6.990;2023-07-28T03:01:15;4.87;;;1.20;;
68089;SDS011;54880;50.986;6.990;2023-07-28T03:03:40;4.03;;;1.13;;
68089;SDS011;54880;50.986;6.990;2023-07-28T03:06:06;4.07;;;1.23;;
68089;SDS011;54880;50.986;6.990;2023-07-28T03:08:33;6.18;;;1.35;;
68089;SDS011;54880;50.986;6.990;2023-07-28T03:11:21;5.25;;;1.80;;
68089;SDS011;54880;50.986;6.990;2023-07-28T03:13:47;4.80;;;1.80;;
68089;SDS011;54880;50.986;6.990;2023-07-28T03:16:13;4.90;;;1.80;;
68089;SDS011;54880;50.986;6.990;2023-07-28T03:18:38;4.97;;;1.67;;
68089;SDS011;54880;50.986;6.990;2023-07-28T03:21:03;5.70;;;1.80;;
68089;SDS011;54880;50.986;6.990;2023-07-28T03:23:28;5.00;;;1.70;;
68089;SDS011;54880;50.986;6.990;2023-07-28T03:25:54;5.13;;;1.80;;
68089;SDS011;54880;50.986;6.990;2023-07-28T03:28:19;5.50;;;1.80;;
68089;SDS011;54880;50.986;6.990;2023-07-28T03:30:44;5.47;;;1.70;;
68089;SDS011;54880;50.986;6.990;2023-07-28T03:33:10;4.90;;;1.60;;
68089;SDS011;54880;50.986;6.990;2023-07-28T03:35:35;4.67;;;1.47;;
68089;SDS011;54880;50.986;6.990;2023-07-28T03:38:06;5.85;;;1.55;;
68089;SDS011;54880;50.986;6.990;2023-07-28T03:40:31;4.50;;;1.40;;
68089;SDS011;54880;50.986;6.990;2023-07-28T03:42:57;5.13;;;1.67;;
68089;SDS011;54880;50.986;6.990;2023-07-28T03:45:22;5.18;;;1.60;;
68089;SDS011;54880;50.986;6.990;2023-07-28T03:47:48;4.70;;;1.57;;
68089;SDS011;54880;50.986;6.990;2023-07-28T03:50:13;4.80;;;1.80;;
68089;SDS011;54880;50.986;6.990;2023-07-28T03:52:38;6.20;;;1.63;;
68089;SDS011;54880;50.986;6.990;2023-07-28T03:55:04;5.40;;;1.60;;
68089;SDS011;54880;50.986;6.990;2023-07-28T03:57:29;4.80;;;1.55;;
68089;SDS011;54880;50.986;6.990;2023-07-28T03:59:55;5.10;;;1.55;;
68089;SDS011;54880;50.986;6.990;2023-07-28T04:02:20;5.00;;;1.70;;
68089;SDS011;54880;50.986;6.990;2023-07-28T04:04:46;6.20;;;1.87;;
68089;SDS011;54880;50.986;6.990;2023-07-28T04:07:11;7.13;;;1.90;;
68089;SDS011;54880;50.986;6.990;2023-07-28T04:09:36;5.50;;;1.67;;
68089;SDS011;54880;50.986;6.990;2023-07-28T04:12:02;5.73;;;1.67;;
68089;SDS011;54880;50.986;6.990;2023-07-28T04:14:27;5.00;;;1.80;;
68089;SDS011;54880;50.986;6.990;2023-07-28T04:16:52;8.87;;;4.00;;
68089;SDS011;54880;50.986;6.990;2023-07-28T04:19:17;5.87;;;2.10;;
68089;SDS011;54880;50.986;6.990;2023-07-28T04:21:43;6.27;;;1.67;;
68089;SDS011;54880;50.986;6.990;2023-07-28T04:24:08;4.50;;;1.60;;
68089;SDS011;54880;50.986;6.990;2023-07-28T04:26:38;6.28;;;1.73;;
68089;SDS011;54880;50.986;6.990;2023-07-28T04:29:03;6.20;;;1.50;;
68089;SDS011;54880;50.986;6.990;2023-07-28T04:31:29;6.15;;;1.60;;
68089;SDS011;54880;50.986;6.990;2023-07-28T04:33:59;5.43;;;1.80;;
68089;SDS011;54880;50.986;6.990;2023-07-28T04:36:34;4.40;;;1.23;;
68089;SDS011;54880;50.986;6.990;2023-07-28T04:39:00;4.97;;;1.63;;
68089;SDS011;54880;50.986;6.990;2023-07-28T04:41:25;5.60;;;1.60;;
68089;SDS011;54880;50.986;6.990;2023-07-28T04:43:52;5.10;;;2.03;;
68089;SDS011;54880;50.986;6.990;2023-07-28T04:46:18;5.43;;;1.50;;
68089;SDS011;54880;50.986;6.990;2023-07-28T04:48:48;5.05;;;1.70;;
68089;SDS011;54880;50.986;6.990;2023-07-28T04:51:32;5.90;;;1.50;;
68089;SDS011;54880;50.986;6.990;2023-07-28T04:54:23;5.40;;;1.70;;
68089;SDS011;54880;50.986;6.990;2023-07-28T04:56:49;6.00;;;1.53;;
68089;SDS011;54880;50.986;6.990;2023-07-28T04:59:19;5.10;;;1.48;;
68089;SDS011;54880;50.986;6.990;2023-07-28T05:01:45;4.70;;;1.30;;
68089;SDS011;54880;50.986;6.990;2023-07-28T05:04:10;5.47;;;1.50;;
68089;SDS011;54880;50.986;6.990;2023-07-28T05:06:35;5.20;;;1.60;;
68089;SDS011;54880;50.986;6.990;2023-07-28T05:09:00;4.70;;;1.60;;
68089;SDS011;54880;50.986;6.990;2023-07-28T05:11:32;4.75;;;1.55;;
68089;SDS011;54880;50.986;6.990;2023-07-28T05:13:58;4.27;;;1.23;;
68089;SDS011;54880;50.986;6.990;2023-07-28T05:16:23;7.90;;;1.60;;
68089;SDS011;54880;50.986;6.990;2023-07-28T05:19:07;4.88;;;1.52;;
68089;SDS011;54880;50.986;6.990;2023-07-28T05:21:42;6.53;;;1.70;;
68089;SDS011;54880;50.986;6.990;2023-07-28T05:24:10;5.70;;;1.43;;
68089;SDS011;54880;50.986;6.990;2023-07-28T05:26:36;6.68;;;1.50;;
68089;SDS011;54880;50.986;6.990;2023-07-28T05:29:01;5.77;;;1.50;;
68089;SDS011;54880;50.986;6.990;2023-07-28T05:31:27;5.68;;;1.40;;
68089;SDS011;54880;50.986;6.990;2023-07-28T05:33:52;8.00;;;1.67;;
68089;SDS011;54880;50.986;6.990;2023-07-28T05:36:19;5.22;;;1.45;;
68089;SDS011;54880;50.986;6.990;2023-07-28T05:38:45;8.98;;;1.70;;
68089;SDS011;54880;50.986;6.990;2023-07-28T05:41:10;5.43;;;1.40;;
68089;SDS011;54880;50.986;6.990;2023-07-28T05:43:36;5.33;;;1.43;;
68089;SDS011;54880;50.986;6.990;2023-07-28T05:46:03;4.55;;;1.40;;
68089;SDS011;54880;50.986;6.990;2023-07-28T05:48:32;5.57;;;1.20;;
68089;SDS011;54880;50.986;6.990;2023-07-28T05:50:57;4.70;;;1.30;;
68089;SDS011;54880;50.986;6.990;2023-07-28T05:53:23;5.27;;;1.50;;
68089;SDS011;54880;50.986;6.990;2023-07-28T05:55:52;6.05;;;1.50;;
68089;SDS011;54880;50.986;6.990;2023-07-28T05:58:18;4.47;;;1.40;;
68089;SDS011;54880;50.986;6.990;2023-07-28T06:00:44;5.70;;;1.40;;
68089;SDS011;54880;50.986;6.990;2023-07-28T06:03:21;4.97;;;1.40;;
68089;SDS011;54880;50.986;6.990;2023-07-28T06:06:04;4.40;;;1.33;;
68089;SDS011;54880;50.986;6.990;2023-07-28T06:08:30;5.15;;;1.45;;
68089;SDS011;54880;50.986;6.990;2023-07-28T06:10:55;5.83;;;1.40;;
68089;SDS011;54880;50.986;6.990;2023-07-28T06:13:20;5.13;;;1.50;;
68089;SDS011;54880;50.986;6.990;2023-07-28T06:15:46;5.77;;;1.60;;
68089;SDS011;54880;50.986;6.990;2023-07-28T06:18:11;5.30;;;1.80;;
68089;SDS011;54880;50.986;6.990;2023-07-28T06:20:37;4.38;;;1.25;;
68089;SDS011;54880;50.986;6.990;2023-07-28T06:23:02;6.37;;;1.40;;
68089;SDS011;54880;50.986;6.990;2023-07-28T06:25:28;5.13;;;1.40;;
68089;SDS011;54880;50.986;6.990;2023-07-28T06:27:53;6.03;;;1.77;;
68089;SDS011;54880;50.986;6.990;2023-07-28T06:30:18;6.13;;;2.07;;
68089;SDS011;54880;50.986;6.990;2023-07-28T06:32:44;5.30;;;1.47;;
68089;SDS011;54880;50.986;6.990;2023-07-28T06:35:09;5.47;;;1.50;;
68089;SDS011;54880;50.986;6.990;2023-07-28T06:37:35;5.93;;;1.50;;
68089;SDS011;54880;50.986;6.990;2023-07-28T06:40:01;4.68;;;1.40;;
68089;SDS011;54880;50.986;6.990;2023-07-28T06:42:26;5.45;;;1.65;;
68089;SDS011;54880;50.986;6.990;2023-07-28T06:44:55;5.10;;;1.63;;
68089;SDS011;54880;50.986;6.990;2023-07-28T06:47:21;7.70;;;1.65;;
68089;SDS011;54880;50.986;6.990;2023-07-28T06:49:47;6.03;;;1.63;;
68089;SDS011;54880;50.986;6.990;2023-07-28T06:52:13;4.50;;;1.50;;
68089;SDS011;54880;50.986;6.990;2023-07-28T06:54:38;6.87;;;1.77;;
68089;SDS011;54880;50.986;6.990;2023-07-28T06:57:06;5.43;;;1.60;;
68089;SDS011;54880;50.986;6.990;2023-07-28T06:59:31;6.00;;;1.70;;
68089;SDS011;54880;50.986;6.990;2023-07-28T07:01:57;5.77;;;1.67;;
68089;SDS011;54880;50.986;6.990;2023-07-28T07:04:22;6.03;;;1.83;;
68089;SDS011;54880;50.986;6.990;2023-07-28T07:06:47;5.40;;;2.00;;
68089;SDS011;54880;50.986;6.990;2023-07-28T07:09:12;5.27;;;1.90;;
68089;SDS011;54880;50.986;6.990;2023-07-28T07:11:40;5.03;;;1.80;;
68089;SDS011;54880;50.986;6.990;2023-07-28T07:14:05;5.50;;;1.70;;
68089;SDS011;54880;50.986;6.990;2023-07-28T07:16:30;7.47;;;2.10;;
68089;SDS011;54880;50.986;6.990;2023-07-28T07:18:55;5.60;;;2.00;;
68089;SDS011;54880;50.986;6.990;2023-07-28T07:21:21;6.93;;;2.17;;
68089;SDS011;54880;50.986;6.990;2023-07-28T07:23:46;6.40;;;1.90;;
68089;SDS011;54880;50.986;6.990;2023-07-28T07:26:24;5.65;;;1.83;;
68089;SDS011;54880;50.986;6.990;2023-07-28T07:28:49;5.50;;;2.10;;
68089;SDS011;54880;50.986;6.990;2023-07-28T07:31:14;7.20;;;2.00;;
68089;SDS011;54880;50.986;6.990;2023-07-28T07:33:40;5.80;;;2.20;;
68089;SDS011;54880;50.986;6.990;2023-07-28T07:36:05;8.07;;;2.20;;
68089;SDS011;54880;50.986;6.990;2023-07-28T07:38:30;7.80;;;2.40;;
68089;SDS011;54880;50.986;6.990;2023-07-28T07:40:56;5.53;;;2.17;;
68089;SDS011;54880;50.986;6.990;2023-07-28T07:43:21;6.53;;;2.03;;
68089;SDS011;54880;50.986;6.990;2023-07-28T07:45:46;6.77;;;2.33;;
68089;SDS011;54880;50.986;6.990;2023-07-28T07:48:16;8.20;;;2.42;;
68089;SDS011;54880;50.986;6.990;2023-07-28T07:50:41;6.30;;;2.70;;
68089;SDS011;54880;50.986;6.990;2023-07-28T07:53:06;6.90;;;2.40;;
68089;SDS011;54880;50.986;6.990;2023-07-28T07:55:32;7.97;;;2.60;;
68089;SDS011;54880;50.986;6.990;2023-07-28T07:57:57;7.73;;;2.60;;
68089;SDS011;54880;50.986;6.990;2023-07-28T08:00:22;7.47;;;2.77;;
68089;SDS011;54880;50.986;6.990;2023-07-28T08:02:49;7.82;;;2.55;;
68089;SDS011;54880;50.986;6.990;2023-07-28T08:05:14;6.00;;;2.67;;
68089;SDS011;54880;50.986;6.990;2023-07-28T08:07:39;5.60;;;2.47;;
68089;SDS011;54880;50.986;6.990;2023-07-28T08:10:05;7.40;;;2.70;;
68089;SDS011;54880;50.986;6.990;2023-07-28T08:12:31;7.13;;;2.30;;
68089;SDS011;54880;50.986;6.990;2023-07-28T08:14:56;6.93;;;2.10;;
68089;SDS011;54880;50.986;6.990;2023-07-28T08:17:21;5.50;;;2.40;;
68089;SDS011;54880;50.986;6.990;2023-07-28T08:19:47;6.35;;;2.30;;
68089;SDS011;54880;50.986;6.990;2023-07-28T08:22:12;6.25;;;2.00;;
68089;SDS011;54880;50.986;6.990;2023-07-28T08:24:37;7.18;;;2.33;;
68089;SDS011;54880;50.986;6.990;2023-07-28T08:27:02;5.80;;;2.40;;
68089;SDS011;54880;50.986;6.990;2023-07-28T08:29:28;5.45;;;1.80;;
68089;SDS011;54880;50.986;6.990;2023-07-28T08:31:54;6.07;;;2.40;;
68089;SDS011;54880;50.986;6.990;2023-07-28T08:34:19;5.60;;;2.20;;
68089;SDS011;54880;50.986;6.990;2023-07-28T08:36:44;5.07;;;1.95;;
68089;SDS011;54880;50.986;6.990;2023-07-28T08:39:09;7.50;;;2.30;;
68089;SDS011;54880;50.986;6.990;2023-07-28T08:41:35;6.85;;;2.00;;
68089;SDS011;54880;50.986;6.990;2023-07-28T08:44:00;6.33;;;1.70;;
68089;SDS011;54880;50.986;6.990;2023-07-28T08:46:25;6.30;;;2.10;;
68089;SDS011;54880;50.986;6.990;2023-07-28T08:48:51;5.00;;;1.90;;
68089;SDS011;54880;50.986;6.990;2023-07-28T08:51:16;7.70;;;2.07;;
68089;SDS011;54880;50.986;6.990;2023-07-28T08:53:41;5.10;;;2.03;;
68089;SDS011;54880;50.986;6.990;2023-07-28T08:56:06;5.00;;;1.57;;
68089;SDS011;54880;50.986;6.990;2023-07-28T08:58:32;5.73;;;1.93;;
68089;SDS011;54880;50.986;6.990;2023-07-28T09:00:57;7.37;;;1.90;;
68089;SDS011;54880;50.986;6.990;2023-07-28T09:03:26;10.07;;;1.50;;
68089;SDS011;54880;50.986;6.990;2023-07-28T09:05:53;5.80;;;1.70;;
68089;SDS011;54880;50.986;6.990;2023-07-28T09:08:18;4.70;;;1.60;;
68089;SDS011;54880;50.986;6.990;2023-07-28T09:10:45;4.53;;;1.60;;
68089;SDS011;54880;50.986;6.990;2023-07-28T09:13:12;4.90;;;1.50;;
68089;SDS011;54880;50.986;6.990;2023-07-28T09:15:37;4.50;;;1.53;;
68089;SDS011;54880;50.986;6.990;2023-07-28T09:18:03;4.40;;;1.58;;
68089;SDS011;54880;50.986;6.990;2023-07-28T09:20:35;4.47;;;1.60;;
68089;SDS011;54880;50.986;6.990;2023-07-28T09:23:01;4.28;;;1.40;;
68089;SDS011;54880;50.986;6.990;2023-07-28T09:25:27;4.53;;;1.40;;
68089;SDS011;54880;50.986;6.990;2023-07-28T09:27:53;6.43;;;1.42;;
68089;SDS011;54880;50.986;6.990;2023-07-28T09:30:18;3.97;;;1.10;;
68089;SDS011;54880;50.986;6.990;2023-07-28T09:32:48;7.60;;;1.30;;
68089;SDS011;54880;50.986;6.990;2023-07-28T09:35:14;4.32;;;1.20;;
68089;SDS011;54880;50.986;6.990;2023-07-28T09:37:40;4.77;;;1.20;;
68089;SDS011;54880;50.986;6.990;2023-07-28T09:40:07;3.83;;;1.10;;
68089;SDS011;54880;50.986;6.990;2023-07-28T09:42:36;5.00;;;1.35;;
68089;SDS011;54880;50.986;6.990;2023-07-28T09:45:02;4.50;;;1.30;;
68089;SDS011;54880;50.986;6.990;2023-07-28T09:47:28;4.97;;;1.30;;
68089;SDS011;54880;50.986;6.990;2023-07-28T09:49:55;4.70;;;1.07;;
68089;SDS011;54880;50.986;6.990;2023-07-28T09:52:23;3.83;;;1.10;;
68089;SDS011;54880;50.986;6.990;2023-07-28T09:54:49;5.10;;;1.20;;
68089;SDS011;54880;50.986;6.990;2023-07-28T09:57:19;4.50;;;1.20;;
68089;SDS011;54880;50.986;6.990;2023-07-28T09:59:45;4.80;;;1.55;;
68089;SDS011;54880;50.986;6.990;2023-07-28T10:02:11;5.00;;;1.20;;
68089;SDS011;54880;50.986;6.990;2023-07-28T10:04:37;4.03;;;1.20;;
68089;SDS011;54880;50.986;6.990;2023-07-28T10:07:04;4.27;;;1.17;;
68089;SDS011;54880;50.986;6.990;2023-07-28T10:09:29;4.97;;;1.10;;
68089;SDS011;54880;50.986;6.990;2023-07-28T10:11:58;3.80;;;1.10;;
68089;SDS011;54880;50.986;6.990;2023-07-28T10:14:30;3.88;;;1.00;;
68089;SDS011;54880;50.986;6.990;2023-07-28T10:16:57;4.32;;;1.00;;
68089;SDS011;54880;50.986;6.990;2023-07-28T10:19:24;4.03;;;1.15;;
68089;SDS011;54880;50.986;6.990;2023-07-28T10:21:49;5.22;;;1.30;;
68089;SDS011;54880;50.986;6.990;2023-07-28T10:24:15;3.90;;;1.10;;
68089;SDS011;54880;50.986;6.990;2023-07-28T10:26:40;3.87;;;1.20;;
68089;SDS011;54880;50.986;6.990;2023-07-28T10:29:10;4.68;;;1.30;;
68089;SDS011;54880;50.986;6.990;2023-07-28T10:31:35;3.55;;;0.98;;
68089;SDS011;54880;50.986;6.990;2023-07-28T10:34:01;4.50;;;1.02;;
68089;SDS011;54880;50.986;6.990;2023-07-28T10:39:02;3.60;;;0.90;;
68089;SDS011;54880;50.986;6.990;2023-07-28T10:41:37;3.42;;;1.02;;
68089;SDS011;54880;50.986;6.990;2023-07-28T10:44:02;3.57;;;1.07;;
68089;SDS011;54880;50.986;6.990;2023-07-28T10:46:28;4.78;;;1.10;;
68089;SDS011;54880;50.986;6.990;2023-07-28T10:48:53;4.00;;;1.20;;
68089;SDS011;54880;50.986;6.990;2023-07-28T10:51:19;6.97;;;1.27;;
68089;SDS011;54880;50.986;6.990;2023-07-28T10:53:44;4.00;;;1.30;;
68089;SDS011;54880;50.986;6.990;2023-07-28T10:56:10;3.47;;;1.00;;
68089;SDS011;54880;50.986;6.990;2023-07-28T10:58:36;3.70;;;1.00;;
68089;SDS011;54880;50.986;6.990;2023-07-28T11:01:01;5.20;;;1.00;;
68089;SDS011;54880;50.986;6.990;2023-07-28T11:03:27;3.53;;;1.00;;
68089;SDS011;54880;50.986;6.990;2023-07-28T11:05:54;4.45;;;1.33;;
68089;SDS011;54880;50.986;6.990;2023-07-28T11:08:19;3.60;;;1.10;;
68089;SDS011;54880;50.986;6.990;2023-07-28T11:10:44;3.63;;;1.00;;
68089;SDS011;54880;50.986;6.990;2023-07-28T11:13:10;3.35;;;0.90;;
68089;SDS011;54880;50.986;6.990;2023-07-28T11:15:36;4.97;;;1.80;;
68089;SDS011;54880;50.986;6.990;2023-07-28T11:18:02;4.77;;;1.30;;
68089;SDS011;54880;50.986;6.990;2023-07-28T11:20:28;4.35;;;1.08;;
68089;SDS011;54880;50.986;6.990;2023-07-28T11:22:57;4.30;;;1.23;;
68089;SDS011;54880;50.986;6.990;2023-07-28T11:25:23;3.38;;;1.00;;
68089;SDS011;54880;50.986;6.990;2023-07-28T11:27:49;3.72;;;1.10;;
68089;SDS011;54880;50.986;6.990;2023-07-28T11:30:15;4.13;;;1.30;;
68089;SDS011;54880;50.986;6.990;2023-07-28T11:32:42;3.35;;;1.10;;
68089;SDS011;54880;50.986;6.990;2023-07-28T11:35:08;3.58;;;1.17;;
68089;SDS011;54880;50.986;6.990;2023-07-28T11:37:34;4.30;;;1.20;;
68089;SDS011;54880;50.986;6.990;2023-07-28T11:40:00;3.88;;;1.10;;
68089;SDS011;54880;50.986;6.990;2023-07-28T11:42:29;3.90;;;1.15;;
68089;SDS011;54880;50.986;6.990;2023-07-28T11:44:55;4.72;;;1.30;;
68089;SDS011;54880;50.986;6.990;2023-07-28T11:47:21;4.27;;;1.20;;
68089;SDS011;54880;50.986;6.990;2023-07-28T11:49:47;4.15;;;1.13;;
68089;SDS011;54880;50.986;6.990;2023-07-28T11:52:13;4.00;;;1.17;;
68089;SDS011;54880;50.986;6.990;2023-07-28T11:54:38;5.37;;;1.20;;
68089;SDS011;54880;50.986;6.990;2023-07-28T11:57:04;4.85;;;1.40;;
68089;SDS011;54880;50.986;6.990;2023-07-28T11:59:31;4.05;;;1.20;;
68089;SDS011;54880;50.986;6.990;2023-07-28T12:01:58;4.60;;;1.20;;
68089;SDS011;54880;50.986;6.990;2023-07-28T12:04:27;5.15;;;1.10;;
68089;SDS011;54880;50.986;6.990;2023-07-28T12:07:02;4.72;;;1.25;;
68089;SDS011;54880;50.986;6.990;2023-07-28T12:09:28;3.90;;;1.30;;
68089;SDS011;54880;50.986;6.990;2023-07-28T12:11:54;3.78;;;1.10;;
68089;SDS011;54880;50.986;6.990;2023-07-28T12:14:32;3.77;;;0.90;;
68089;SDS011;54880;50.986;6.990;2023-07-28T12:17:00;3.35;;;1.00;;
68089;SDS011;54880;50.986;6.990;2023-07-28T12:19:26;3.58;;;1.05;;
68089;SDS011;54880;50.986;6.990;2023-07-28T12:21:52;3.65;;;1.10;;
68089;SDS011;54880;50.986;6.990;2023-07-28T12:24:17;7.07;;;1.20;;
68089;SDS011;54880;50.986;6.990;2023-07-28T12:26:43;3.17;;;1.00;;
68089;SDS011;54880;50.986;6.990;2023-07-28T12:29:16;4.00;;;1.13;;
68089;SDS011;54880;50.986;6.990;2023-07-28T12:31:41;4.30;;;1.15;;
68089;SDS011;54880;50.986;6.990;2023-07-28T12:34:10;4.82;;;1.20;;
68089;SDS011;54880;50.986;6.990;2023-07-28T12:36:35;4.60;;;1.40;;
68089;SDS011;54880;50.986;6.990;2023-07-28T12:39:00;3.60;;;1.25;;
68089;SDS011;54880;50.986;6.990;2023-07-28T12:41:26;3.90;;;1.10;;
68089;SDS011;54880;50.986;6.990;2023-07-28T12:43:51;4.33;;;1.20;;
68089;SDS011;54880;50.986;6.990;2023-07-28T12:46:16;4.00;;;1.30;;
68089;SDS011;54880;50.986;6.990;2023-07-28T12:48:41;5.90;;;1.50;;
68089;SDS011;54880;50.986;6.990;2023-07-28T12:51:07;3.80;;;1.20;;
68089;SDS011;54880;50.986;6.990;2023-07-28T12:53:35;3.95;;;1.30;;
68089;SDS011;54880;50.986;6.990;2023-07-28T12:56:00;4.40;;;1.20;;
68089;SDS011;54880;50.986;6.990;2023-07-28T12:58:25;4.38;;;1.23;;
68089;SDS011;54880;50.986;6.990;2023-07-28T13:00:51;4.60;;;1.20;;
68089;SDS011;54880;50.986;6.990;2023-07-28T13:03:16;3.90;;;1.30;;
68089;SDS011;54880;50.986;6.990;2023-07-28T13:05:42;3.80;;;1.30;;
68089;SDS011;54880;50.986;6.990;2023-07-28T13:08:08;3.40;;;1.02;;
68089;SDS011;54880;50.986;6.990;2023-07-28T13:10:33;3.40;;;1.00;;
68089;SDS011;54880;50.986;6.990;2023-07-28T13:12:59;7.13;;;1.20;;
68089;SDS011;54880;50.986;6.990;2023-07-28T13:15:24;3.67;;;1.10;;
68089;SDS011;54880;50.986;6.990;2023-07-28T13:17:49;3.63;;;1.07;;
68089;SDS011;54880;50.986;6.990;2023-07-28T13:20:15;3.87;;;1.20;;
68089;SDS011;54880;50.986;6.990;2023-07-28T13:22:40;3.60;;;1.20;;
68089;SDS011;54880;50.986;6.990;2023-07-28T13:25:05;4.00;;;1.10;;
68089;SDS011;54880;50.986;6.990;2023-07-28T13:27:30;6.83;;;2.63;;
68089;SDS011;54880;50.986;6.990;2023-07-28T13:29:56;4.63;;;1.10;;
68089;SDS011;54880;50.986;6.990;2023-07-28T13:32:23;4.00;;;1.15;;
68089;SDS011;54880;50.986;6.990;2023-07-28T13:34:49;3.47;;;1.10;;
68089;SDS011;54880;50.986;6.990;2023-07-28T13:37:14;3.83;;;1.00;;
68089;SDS011;54880;50.986;6.990;2023-07-28T13:39:39;3.70;;;1.23;;
68089;SDS011;54880;50.986;6.990;2023-07-28T13:42:05;4.40;;;1.00;;
68089;SDS011;54880;50.986;6.990;2023-07-28T13:44:30;3.03;;;0.90;;
68089;SDS011;54880;50.986;6.990;2023-07-28T13:46:55;3.30;;;1.00;;
68089;SDS011;54880;50.986;6.990;2023-07-28T13:49:21;3.55;;;0.90;;
68089;SDS011;54880;50.986;6.990;2023-07-28T13:51:46;3.25;;;0.75;;
68089;SDS011;54880;50.986;6.990;2023-07-28T13:54:11;4.37;;;0.97;;
68089;SDS011;54880;50.986;6.990;2023-07-28T13:56:36;2.73;;;0.70;;
68089;SDS011;54880;50.986;6.990;2023-07-28T13:59:02;4.23;;;1.10;;
68089;SDS011;54880;50.986;6.990;2023-07-28T14:01:27;3.67;;;1.10;;
68089;SDS011;54880;50.986;6.990;2023-07-28T14:03:52;3.33;;;0.90;;
68089;SDS011;54880;50.986;6.990;2023-07-28T14:06:18;4.40;;;0.97;;
68089;SDS011;54880;50.986;6.990;2023-07-28T14:08:43;4.18;;;1.10;;
68089;SDS011;54880;50.986;6.990;2023-07-28T14:11:10;3.40;;;1.00;;
68089;SDS011;54880;50.986;6.990;2023-07-28T14:13:35;3.08;;;1.00;;
68089;SDS011;54880;50.986;6.990;2023-07-28T14:16:00;4.17;;;1.00;;
68089;SDS011;54880;50.986;6.990;2023-07-28T14:18:26;3.13;;;0.90;;
68089;SDS011;54880;50.986;6.990;2023-07-28T14:20:51;3.27;;;0.87;;
68089;SDS011;54880;50.986;6.990;2023-07-28T14:23:23;3.17;;;0.90;;
68089;SDS011;54880;50.986;6.990;2023-07-28T14:25:49;3.85;;;1.10;;
68089;SDS011;54880;50.986;6.990;2023-07-28T14:28:14;3.10;;;0.88;;
68089;SDS011;54880;50.986;6.990;2023-07-28T14:30:40;3.27;;;0.90;;
68089;SDS011;54880;50.986;6.990;2023-07-28T14:33:05;4.17;;;1.00;;
68089;SDS011;54880;50.986;6.990;2023-07-28T14:35:30;4.00;;;1.13;;
68089;SDS011;54880;50.986;6.990;2023-07-28T14:37:55;4.77;;;1.00;;
68089;SDS011;54880;50.986;6.990;2023-07-28T14:40:21;5.30;;;1.00;;
68089;SDS011;54880;50.986;6.990;2023-07-28T14:42:46;3.87;;;1.00;;
68089;SDS011;54880;50.986;6.990;2023-07-28T14:45:11;3.70;;;1.13;;
68089;SDS011;54880;50.986;6.990;2023-07-28T14:47:36;2.97;;;0.90;;